createdAt,value
2018-09-01T00:00:55.140Z,78.58
2018-09-01T00:01:55.233Z,78.86
2018-09-01T00:02:55.327Z,78.58
2018-09-01T00:03:55.423Z,78.01
2018-09-01T00:04:55.519Z,77.62
2018-09-01T00:05:55.613Z,77.72
2018-09-01T00:06:55.706Z,77.25
2018-09-01T00:07:55.791Z,77.53
2018-09-01T00:08:55.886Z,77.34
2018-09-01T00:09:55.977Z,77.72
2018-09-01T00:10:56.071Z,77.53
2018-09-01T00:11:56.164Z,77.82
2018-09-01T00:12:56.257Z,78.20
2018-09-01T00:13:56.352Z,78.01
2018-09-01T00:14:56.489Z,78.10
2018-09-01T00:15:56.536Z,78.30
2018-09-01T00:16:56.630Z,78.39
2018-09-01T00:17:56.716Z,78.44
2018-09-01T00:18:56.808Z,78.35
2018-09-01T00:19:56.899Z,78.25
2018-09-01T00:20:56.993Z,78.25
2018-09-01T00:21:57.087Z,78.83
2018-09-01T00:22:57.178Z,78.73
2018-09-01T00:23:57.273Z,79.35
2018-09-01T00:24:57.369Z,79.11
2018-09-01T00:25:57.450Z,79.88
2018-09-01T00:26:57.541Z,80.26
2018-09-01T00:27:57.632Z,79.97
2018-09-01T00:28:57.727Z,79.49
2018-09-01T00:29:57.820Z,79.59
2018-09-01T00:30:57.914Z,79.88
2018-09-01T00:31:58.005Z,79.40
2018-09-01T00:32:58.099Z,79.59
2018-09-01T00:33:58.190Z,79.49
2018-09-01T00:34:58.291Z,79.88
2018-09-01T00:35:58.380Z,80.44
2018-09-01T00:36:58.471Z,79.88
2018-09-01T00:37:58.563Z,79.59
2018-09-01T00:38:58.655Z,80.07
2018-09-01T00:39:58.748Z,80.35
2018-09-01T00:40:58.842Z,80.16
2018-09-01T00:41:58.932Z,80.07
2018-09-01T00:42:59.024Z,80.16
2018-09-01T00:43:59.117Z,80.16
2018-09-01T00:44:59.210Z,80.16
2018-09-01T00:45:59.304Z,79.78
2018-09-01T00:46:59.395Z,80.26
2018-09-01T00:47:59.487Z,80.26
2018-09-01T00:48:59.577Z,80.54
2018-09-01T00:49:59.669Z,80.92
2018-09-01T00:50:59.761Z,81.21
2018-09-01T00:51:59.853Z,80.92
2018-09-01T00:52:59.944Z,80.73
2018-09-01T00:54:00.041Z,80.83
2018-09-01T00:55:00.129Z,80.64
2018-09-01T00:56:00.221Z,80.64
2018-09-01T00:57:00.313Z,80.73
2018-09-01T00:58:00.402Z,80.73
2018-09-01T00:59:00.493Z,81.02
2018-09-01T01:00:00.583Z,80.83
2018-09-01T01:01:00.683Z,80.83
2018-09-01T01:02:00.769Z,80.83
2018-09-01T01:03:00.864Z,80.69
2018-09-01T01:04:00.956Z,80.60
2018-09-01T01:05:01.046Z,80.64
2018-09-01T01:06:01.139Z,80.83
2018-09-01T01:07:01.233Z,80.54
2018-09-01T01:08:01.326Z,80.50
2018-09-01T01:09:01.421Z,80.26
2018-09-01T01:10:01.512Z,79.83
2018-09-01T01:11:01.605Z,80.12
2018-09-01T01:12:01.699Z,80.41
2018-09-01T01:13:01.788Z,79.74
2018-09-01T01:14:01.880Z,80.22
2018-09-01T01:15:01.972Z,80.60
2018-09-01T01:16:02.065Z,80.60
2018-09-01T01:17:02.148Z,80.69
2018-09-01T01:18:02.247Z,80.31
2018-09-01T01:19:02.340Z,80.60
2018-09-01T01:20:02.433Z,80.60
2018-09-01T01:21:02.524Z,80.41
2018-09-01T01:22:02.617Z,80.41
2018-09-01T01:23:02.720Z,80.60
2018-09-01T01:24:02.811Z,80.31
2018-09-01T01:25:02.906Z,80.60
2018-09-01T01:26:02.997Z,80.41
2018-09-01T01:27:03.089Z,80.60
2018-09-01T01:28:03.181Z,80.98
2018-09-01T01:29:03.274Z,80.98
2018-09-01T01:30:03.359Z,80.79
2018-09-01T01:31:03.457Z,80.79
2018-09-01T01:32:03.549Z,80.60
2018-09-01T01:33:03.646Z,80.79
2018-09-01T01:34:03.736Z,80.79
2018-09-01T01:35:03.829Z,81.17
2018-09-01T01:36:03.915Z,80.69
2018-09-01T01:37:04.015Z,81.26
2018-09-01T01:38:04.103Z,81.07
2018-09-01T01:39:04.194Z,81.17
2018-09-01T01:40:04.416Z,81.07
2018-09-01T01:41:04.425Z,80.98
2018-09-01T01:42:04.513Z,81.07
2018-09-01T01:43:04.605Z,81.17
2018-09-01T01:44:04.702Z,81.55
2018-09-01T01:45:04.791Z,81.07
2018-09-01T01:46:04.884Z,81.74
2018-09-01T01:47:04.977Z,81.26
2018-09-01T01:48:05.069Z,81.36
2018-09-01T01:49:05.169Z,81.84
2018-09-01T01:50:05.263Z,81.84
2018-09-01T01:51:05.354Z,81.84
2018-09-01T01:52:05.448Z,81.65
2018-09-01T01:53:05.546Z,82.12
2018-09-01T01:54:05.633Z,82.03
2018-09-01T01:55:05.722Z,82.12
2018-09-01T01:56:05.811Z,82.21
2018-09-01T01:57:05.898Z,81.93
2018-09-01T01:58:06.017Z,82.12
2018-09-01T01:59:06.107Z,81.79
2018-09-01T02:00:06.197Z,81.84
2018-09-01T02:01:06.288Z,82.18
2018-09-01T02:02:06.394Z,82.18
2018-09-01T02:03:06.485Z,82.46
2018-09-01T02:04:06.579Z,82.56
2018-09-01T02:05:06.671Z,82.27
2018-09-01T02:06:06.760Z,81.98
2018-09-01T02:07:06.856Z,82.46
2018-09-01T02:08:06.945Z,82.27
2018-09-01T02:09:07.029Z,82.46
2018-09-01T02:10:07.119Z,82.46
2018-09-01T02:11:07.211Z,82.84
2018-09-01T02:12:07.306Z,83.22
2018-09-01T02:13:07.395Z,83.03
2018-09-01T02:14:07.491Z,83.22
2018-09-01T02:15:07.584Z,82.75
2018-09-01T02:16:07.674Z,83.03
2018-09-01T02:17:07.767Z,82.75
2018-09-01T02:18:07.859Z,82.65
2018-09-01T02:19:07.952Z,82.56
2018-09-01T02:20:08.048Z,82.56
2018-09-01T02:21:08.146Z,82.18
2018-09-01T02:22:08.229Z,82.18
2018-09-01T02:23:08.322Z,82.08
2018-09-01T02:24:08.413Z,82.46
2018-09-01T02:25:08.505Z,82.65
2018-09-01T02:26:08.595Z,82.56
2018-09-01T02:27:08.680Z,82.56
2018-09-01T02:28:08.764Z,82.65
2018-09-01T02:29:08.850Z,82.75
2018-09-01T02:30:08.948Z,82.46
2018-09-01T02:31:09.036Z,83.22
2018-09-01T02:32:09.127Z,82.75
2018-09-01T02:33:09.223Z,82.56
2018-09-01T02:34:09.312Z,82.56
2018-09-01T02:35:09.403Z,82.65
2018-09-01T02:36:09.494Z,82.37
2018-09-01T02:37:09.590Z,83.22
2018-09-01T02:38:09.678Z,83.13
2018-09-01T02:39:09.774Z,82.65
2018-09-01T02:40:09.860Z,83.22
2018-09-01T02:41:09.951Z,83.13
2018-09-01T02:42:10.046Z,83.03
2018-09-01T02:43:10.137Z,83.22
2018-09-01T02:44:10.231Z,82.65
2018-09-01T02:45:10.321Z,83.22
2018-09-01T02:46:10.415Z,83.13
2018-09-01T02:47:10.506Z,83.32
2018-09-01T02:48:10.595Z,83.70
2018-09-01T02:49:10.683Z,83.89
2018-09-01T02:50:10.774Z,83.70
2018-09-01T02:51:10.870Z,83.13
2018-09-01T02:52:10.958Z,82.99
2018-09-01T02:53:11.050Z,83.03
2018-09-01T02:54:11.149Z,83.13
2018-09-01T02:55:11.239Z,82.99
2018-09-01T02:56:11.334Z,83.18
2018-09-01T02:57:11.422Z,83.94
2018-09-01T02:58:11.513Z,83.94
2018-09-01T02:59:11.606Z,84.23
2018-09-01T03:00:11.701Z,83.85
2018-09-01T03:01:11.784Z,84.70
2018-09-01T03:02:11.879Z,84.52
2018-09-01T03:03:11.969Z,84.42
2018-09-01T03:04:12.059Z,83.94
2018-09-01T03:05:12.151Z,83.51
2018-09-01T03:06:12.250Z,83.85
2018-09-01T03:07:12.334Z,83.85
2018-09-01T03:08:12.424Z,83.85
2018-09-01T03:09:12.517Z,83.94
2018-09-01T03:10:12.606Z,83.75
2018-09-01T03:11:12.702Z,83.94
2018-09-01T03:12:12.840Z,83.94
2018-09-01T03:13:12.934Z,83.94
2018-09-01T03:14:13.025Z,83.85
2018-09-01T03:15:13.121Z,83.65
2018-09-01T03:16:13.210Z,83.94
2018-09-01T03:17:13.300Z,83.94
2018-09-01T03:18:13.396Z,83.85
2018-09-01T03:19:13.487Z,83.85
2018-09-01T03:20:13.576Z,83.75
2018-09-01T03:21:13.667Z,83.94
2018-09-01T03:22:13.758Z,83.85
2018-09-01T03:23:13.849Z,83.85
2018-09-01T03:24:13.941Z,83.94
2018-09-01T03:25:14.039Z,83.94
2018-09-01T03:26:14.132Z,84.04
2018-09-01T03:27:14.223Z,83.94
2018-09-01T03:28:14.314Z,84.23
2018-09-01T03:29:14.404Z,83.85
2018-09-01T03:30:14.500Z,84.04
2018-09-01T03:31:14.586Z,84.52
2018-09-01T03:32:14.674Z,84.23
2018-09-01T03:33:14.763Z,83.75
2018-09-01T03:34:14.859Z,84.33
2018-09-01T03:35:14.947Z,84.23
2018-09-01T03:36:15.039Z,84.61
2018-09-01T03:37:15.128Z,84.33
2018-09-01T03:38:15.223Z,83.85
2018-09-01T03:39:15.311Z,84.42
2018-09-01T03:40:15.402Z,84.04
2018-09-01T03:41:15.494Z,84.33
2018-09-01T03:42:15.588Z,84.33
2018-09-01T03:43:15.679Z,84.42
2018-09-01T03:44:15.775Z,83.47
2018-09-01T03:45:15.868Z,83.85
2018-09-01T03:46:15.961Z,83.94
2018-09-01T03:47:16.050Z,83.85
2018-09-01T03:48:16.142Z,83.94
2018-09-01T03:49:16.238Z,83.65
2018-09-01T03:50:16.328Z,83.56
2018-09-01T03:51:16.413Z,84.13
2018-09-01T03:52:16.506Z,84.33
2018-09-01T03:53:16.592Z,84.23
2018-09-01T03:54:16.686Z,84.42
2018-09-01T03:55:16.776Z,84.33
2018-09-01T03:56:16.863Z,84.70
2018-09-01T03:57:16.956Z,84.61
2018-09-01T03:58:17.047Z,84.52
2018-09-01T03:59:17.139Z,84.42
2018-09-01T04:00:17.230Z,84.23
2018-09-01T04:01:17.321Z,85.08
2018-09-01T04:02:17.412Z,84.61
2018-09-01T04:03:17.508Z,84.42
2018-09-01T04:04:17.603Z,84.23
2018-09-01T04:05:17.691Z,84.70
2018-09-01T04:06:17.787Z,85.18
2018-09-01T04:07:17.877Z,84.89
2018-09-01T04:08:17.969Z,84.89
2018-09-01T04:09:18.063Z,84.61
2018-09-01T04:10:18.153Z,84.66
2018-09-01T04:11:18.245Z,85.14
2018-09-01T04:12:18.338Z,85.75
2018-09-01T04:13:18.431Z,85.37
2018-09-01T04:14:18.522Z,85.47
2018-09-01T04:15:18.615Z,85.18
2018-09-01T04:16:18.707Z,85.37
2018-09-01T04:17:18.798Z,85.61
2018-09-01T04:18:18.891Z,85.52
2018-09-01T04:19:18.981Z,85.71
2018-09-01T04:20:19.073Z,85.80
2018-09-01T04:21:19.162Z,85.56
2018-09-01T04:22:19.254Z,85.42
2018-09-01T04:23:19.348Z,85.28
2018-09-01T04:24:19.482Z,85.14
2018-09-01T04:25:19.529Z,85.33
2018-09-01T04:26:19.621Z,85.18
2018-09-01T04:27:19.713Z,85.71
2018-09-01T04:28:19.805Z,85.18
2018-09-01T04:29:19.905Z,84.80
2018-09-01T04:30:20.008Z,84.70
2018-09-01T04:31:20.100Z,84.89
2018-09-01T04:32:20.191Z,84.80
2018-09-01T04:33:20.283Z,84.70
2018-09-01T04:34:20.375Z,85.24
2018-09-01T04:35:20.472Z,85.42
2018-09-01T04:36:20.558Z,85.08
2018-09-01T04:37:20.650Z,85.28
2018-09-01T04:38:20.744Z,85.24
2018-09-01T04:39:20.837Z,85.14
2018-09-01T04:40:20.930Z,85.33
2018-09-01T04:41:21.021Z,85.04
2018-09-01T04:42:21.106Z,84.89
2018-09-01T04:43:21.196Z,84.70
2018-09-01T04:44:21.286Z,84.66
2018-09-01T04:45:21.377Z,85.04
2018-09-01T04:46:21.466Z,84.89
2018-09-01T04:47:21.557Z,84.99
2018-09-01T04:48:21.651Z,84.89
2018-09-01T04:49:21.743Z,84.89
2018-09-01T04:50:21.839Z,85.08
2018-09-01T04:51:21.929Z,84.76
2018-09-01T04:52:22.018Z,85.14
2018-09-01T04:53:22.110Z,85.14
2018-09-01T04:54:22.199Z,84.85
2018-09-01T04:55:22.291Z,84.76
2018-09-01T04:56:22.382Z,84.76
2018-09-01T04:57:22.473Z,84.76
2018-09-01T04:58:22.563Z,84.89
2018-09-01T04:59:22.655Z,84.99
2018-09-01T05:00:22.748Z,85.08
2018-09-01T05:01:22.845Z,84.89
2018-09-01T05:02:22.920Z,84.66
2018-09-01T05:03:23.013Z,84.89
2018-09-01T05:04:23.106Z,84.80
2018-09-01T05:05:23.224Z,84.70
2018-09-01T05:06:23.295Z,84.89
2018-09-01T05:07:23.384Z,84.70
2018-09-01T05:08:23.473Z,85.08
2018-09-01T05:09:23.564Z,85.08
2018-09-01T05:10:23.655Z,84.76
2018-09-01T05:11:23.747Z,84.89
2018-09-01T05:12:23.845Z,85.08
2018-09-01T05:13:23.933Z,85.08
2018-09-01T05:14:24.031Z,84.52
2018-09-01T05:15:24.121Z,84.61
2018-09-01T05:16:24.210Z,84.47
2018-09-01T05:17:24.302Z,84.61
2018-09-01T05:18:24.392Z,84.09
2018-09-01T05:19:24.483Z,84.47
2018-09-01T05:20:24.569Z,84.23
2018-09-01T05:21:24.666Z,84.13
2018-09-01T05:22:24.750Z,84.04
2018-09-01T05:23:24.849Z,84.33
2018-09-01T05:24:24.938Z,84.23
2018-09-01T05:25:25.028Z,83.85
2018-09-01T05:26:25.117Z,84.09
2018-09-01T05:27:25.213Z,83.94
2018-09-01T05:28:25.300Z,84.09
2018-09-01T05:29:25.391Z,84.28
2018-09-01T05:30:25.483Z,84.70
2018-09-01T05:31:25.575Z,84.13
2018-09-01T05:32:25.672Z,83.65
2018-09-01T05:33:25.759Z,83.75
2018-09-01T05:34:25.851Z,83.94
2018-09-01T05:35:25.955Z,84.13
2018-09-01T05:36:26.046Z,84.42
2018-09-01T05:37:26.129Z,84.61
2018-09-01T05:38:26.219Z,84.33
2018-09-01T05:39:26.307Z,84.42
2018-09-01T05:40:26.399Z,84.61
2018-09-01T05:41:26.489Z,84.04
2018-09-01T05:42:26.587Z,84.23
2018-09-01T05:43:26.673Z,84.33
2018-09-01T05:44:26.765Z,84.13
2018-09-01T05:45:26.857Z,84.13
2018-09-01T05:46:26.949Z,84.23
2018-09-01T05:47:27.041Z,84.52
2018-09-01T05:48:27.133Z,84.33
2018-09-01T05:49:27.227Z,83.85
2018-09-01T05:50:27.697Z,84.52
2018-09-01T05:51:27.642Z,84.33
2018-09-01T05:52:27.486Z,84.13
2018-09-01T05:53:27.576Z,84.33
2018-09-01T05:54:27.672Z,84.13
2018-09-01T05:55:27.762Z,84.33
2018-09-01T05:56:27.856Z,84.23
2018-09-01T05:57:27.949Z,83.85
2018-09-01T05:58:28.041Z,83.89
2018-09-01T05:59:28.129Z,83.70
2018-09-01T06:00:28.266Z,84.17
2018-09-01T06:01:28.310Z,83.80
2018-09-01T06:02:28.405Z,84.17
2018-09-01T06:03:28.495Z,83.80
2018-09-01T06:04:28.590Z,83.98
2018-09-01T06:05:28.663Z,83.80
2018-09-01T06:06:28.868Z,83.70
2018-09-01T06:07:28.841Z,84.17
2018-09-01T06:08:28.928Z,83.13
2018-09-01T06:09:29.023Z,83.13
2018-09-01T06:10:29.113Z,83.32
2018-09-01T06:11:29.205Z,83.41
2018-09-01T06:12:29.296Z,82.56
2018-09-01T06:13:29.395Z,83.03
2018-09-01T06:14:29.481Z,83.32
2018-09-01T06:15:29.577Z,83.03
2018-09-01T06:16:29.671Z,83.13
2018-09-01T06:17:29.773Z,83.17
2018-09-01T06:18:29.853Z,83.31
2018-09-01T06:19:29.942Z,81.88
2018-09-01T06:20:30.035Z,80.68
2018-09-01T06:21:30.125Z,79.19
2018-09-01T06:22:30.219Z,78.05
2018-09-01T06:23:30.315Z,77.00
2018-09-01T06:24:30.405Z,77.00
2018-09-01T06:25:30.499Z,76.81
2018-09-01T06:26:30.593Z,77.09
2018-09-01T06:27:30.697Z,76.46
2018-09-01T06:28:30.786Z,75.70
2018-09-01T06:29:30.878Z,75.42
2018-09-01T06:30:30.972Z,75.70
2018-09-01T06:31:31.064Z,75.60
2018-09-01T06:32:31.159Z,75.42
2018-09-01T06:33:31.253Z,75.51
2018-09-01T06:34:31.351Z,75.03
2018-09-01T06:35:31.453Z,75.22
2018-09-01T06:36:31.536Z,75.60
2018-09-01T06:37:31.693Z,75.51
2018-09-01T06:38:31.726Z,74.84
2018-09-01T06:39:31.821Z,74.49
2018-09-01T06:40:31.915Z,73.77
2018-09-01T06:41:32.010Z,73.19
2018-09-01T06:42:32.103Z,72.33
2018-09-01T06:43:32.197Z,72.08
2018-09-01T06:44:32.293Z,71.19
2018-09-01T06:45:32.385Z,71.47
2018-09-01T06:46:32.481Z,72.05
2018-09-01T06:47:32.574Z,72.05
2018-09-01T06:48:32.669Z,72.33
2018-09-01T06:49:32.762Z,72.68
2018-09-01T06:50:32.861Z,73.35
2018-09-01T06:51:33.036Z,73.16
2018-09-01T06:52:33.052Z,73.63
2018-09-01T06:53:33.150Z,74.40
2018-09-01T06:54:33.240Z,74.21
2018-09-01T06:55:33.335Z,74.02
2018-09-01T06:56:33.430Z,73.83
2018-09-01T06:57:33.533Z,74.30
2018-09-01T06:58:33.626Z,73.54
2018-09-01T06:59:33.728Z,73.54
2018-09-01T07:00:33.826Z,73.83
2018-09-01T07:01:33.939Z,74.11
2018-09-01T07:02:34.033Z,74.69
2018-09-01T07:03:34.133Z,74.11
2018-09-01T07:04:34.229Z,74.59
2018-09-01T07:05:34.325Z,74.49
2018-09-01T07:06:34.420Z,75.01
2018-09-01T07:07:34.517Z,74.05
2018-09-01T07:08:34.616Z,74.15
2018-09-01T07:09:34.702Z,74.24
2018-09-01T07:10:34.797Z,74.24
2018-09-01T07:11:34.895Z,74.15
2018-09-01T07:12:34.989Z,73.99
2018-09-01T07:13:35.086Z,73.33
2018-09-01T07:14:35.180Z,72.85
2018-09-01T07:15:35.278Z,72.69
2018-09-01T07:16:35.402Z,72.02
2018-09-01T07:17:35.513Z,71.36
2018-09-01T07:18:35.613Z,71.36
2018-09-01T07:19:35.709Z,70.50
2018-09-01T07:20:35.807Z,70.68
2018-09-01T07:21:35.904Z,70.50
2018-09-01T07:22:36.001Z,70.68
2018-09-01T07:23:36.093Z,70.24
2018-09-01T07:24:36.186Z,70.24
2018-09-01T07:25:36.282Z,70.05
2018-09-01T07:26:36.381Z,70.05
2018-09-01T07:27:36.477Z,70.05
2018-09-01T07:28:36.572Z,70.05
2018-09-01T07:29:36.673Z,70.18
2018-09-01T07:30:36.833Z,70.34
2018-09-01T07:31:37.277Z,69.80
2018-09-01T07:32:36.971Z,69.80
2018-09-01T07:33:37.078Z,69.86
2018-09-01T07:34:37.173Z,70.05
2018-09-01T07:35:37.267Z,70.09
2018-09-01T07:36:37.388Z,69.60
2018-09-01T07:37:37.484Z,69.03
2018-09-01T07:38:37.598Z,68.65
2018-09-01T07:39:37.702Z,69.80
2018-09-01T07:40:37.804Z,69.99
2018-09-01T07:41:37.899Z,70.34
2018-09-01T07:42:37.994Z,70.24
2018-09-01T07:43:38.100Z,69.95
2018-09-01T07:44:38.201Z,70.24
2018-09-01T07:45:38.295Z,69.95
2018-09-01T07:46:38.392Z,70.24
2018-09-01T07:47:38.489Z,70.81
2018-09-01T07:48:38.585Z,70.53
2018-09-01T07:49:38.710Z,70.72
2018-09-01T07:50:38.785Z,70.72
2018-09-01T07:51:38.881Z,70.53
2018-09-01T07:52:38.978Z,71.30
2018-09-01T07:53:39.073Z,71.11
2018-09-01T07:54:39.202Z,70.91
2018-09-01T07:55:39.265Z,71.20
2018-09-01T07:56:39.360Z,71.77
2018-09-01T07:57:39.460Z,71.20
2018-09-01T07:58:39.556Z,71.39
2018-09-01T07:59:39.650Z,71.68
2018-09-01T08:00:39.756Z,71.42
2018-09-01T08:01:39.851Z,71.42
2018-09-01T08:02:39.954Z,71.04
2018-09-01T08:03:40.045Z,71.42
2018-09-01T08:04:40.137Z,71.33
2018-09-01T08:05:40.239Z,71.42
2018-09-01T08:06:40.330Z,71.23
2018-09-01T08:07:40.426Z,71.42
2018-09-01T08:08:40.506Z,70.95
2018-09-01T08:09:40.625Z,71.33
2018-09-01T08:10:40.743Z,71.42
2018-09-01T08:11:40.840Z,71.14
2018-09-01T08:12:40.935Z,70.60
2018-09-01T08:13:41.080Z,70.79
2018-09-01T08:14:41.171Z,70.21
2018-09-01T08:15:41.219Z,70.21
2018-09-01T08:16:41.327Z,70.50
2018-09-01T08:17:41.420Z,70.41
2018-09-01T08:18:41.519Z,70.15
2018-09-01T08:19:41.615Z,69.96
2018-09-01T08:20:41.712Z,70.25
2018-09-01T08:21:41.807Z,69.96
2018-09-01T08:22:41.911Z,69.96
2018-09-01T08:23:42.006Z,70.25
2018-09-01T08:24:42.099Z,69.77
2018-09-01T08:25:42.194Z,70.25
2018-09-01T08:26:42.297Z,70.64
2018-09-01T08:27:42.386Z,70.89
2018-09-01T08:28:42.483Z,70.73
2018-09-01T08:29:42.584Z,70.44
2018-09-01T08:30:42.680Z,70.44
2018-09-01T08:31:42.778Z,70.09
2018-09-01T08:32:42.873Z,69.71
2018-09-01T08:33:43.055Z,70.09
2018-09-01T08:34:43.068Z,69.90
2018-09-01T08:35:43.169Z,69.71
2018-09-01T08:36:43.264Z,69.46
2018-09-01T08:37:43.361Z,68.69
2018-09-01T08:38:43.458Z,69.17
2018-09-01T08:39:43.552Z,68.30
2018-09-01T08:40:43.648Z,68.12
2018-09-01T08:41:43.746Z,68.30
2018-09-01T08:42:43.842Z,68.02
2018-09-01T08:43:43.937Z,68.63
2018-09-01T08:44:44.035Z,67.09
2018-09-01T08:45:44.134Z,66.80
2018-09-01T08:46:44.237Z,65.14
2018-09-01T08:47:44.332Z,65.33
2018-09-01T08:48:44.433Z,65.05
2018-09-01T08:49:44.529Z,64.95
2018-09-01T08:50:44.627Z,65.52
2018-09-01T08:51:44.723Z,65.46
2018-09-01T08:52:44.821Z,65.46
2018-09-01T08:53:44.916Z,64.40
2018-09-01T08:54:45.015Z,64.31
2018-09-01T08:55:45.171Z,63.92
2018-09-01T08:56:45.276Z,63.73
2018-09-01T08:57:45.363Z,64.12
2018-09-01T08:58:45.453Z,64.12
2018-09-01T08:59:45.550Z,64.31
2018-09-01T09:00:45.644Z,64.43
2018-09-01T09:01:45.743Z,64.15
2018-09-01T09:02:45.839Z,63.16
2018-09-01T09:03:45.936Z,63.06
2018-09-01T09:04:46.057Z,64.02
2018-09-01T09:05:46.159Z,64.59
2018-09-01T09:06:46.249Z,64.59
2018-09-01T09:07:46.347Z,65.01
2018-09-01T09:08:46.446Z,63.67
2018-09-01T09:09:46.544Z,63.28
2018-09-01T09:10:46.639Z,63.48
2018-09-01T09:11:46.749Z,64.43
2018-09-01T09:12:46.847Z,64.09
2018-09-01T09:13:46.947Z,63.51
2018-09-01T09:14:47.048Z,63.12
2018-09-01T09:15:47.145Z,63.41
2018-09-01T09:16:47.252Z,63.02
2018-09-01T09:17:47.348Z,61.97
2018-09-01T09:18:47.453Z,61.87
2018-09-01T09:19:47.552Z,62.07
2018-09-01T09:20:47.649Z,62.26
2018-09-01T09:21:47.747Z,62.35
2018-09-01T09:22:47.845Z,62.07
2018-09-01T09:23:47.942Z,62.55
2018-09-01T09:24:48.037Z,61.78
2018-09-01T09:25:48.133Z,61.58
2018-09-01T09:26:48.234Z,62.07
2018-09-01T09:27:48.329Z,62.10
2018-09-01T09:28:48.427Z,62.10
2018-09-01T09:29:48.524Z,61.52
2018-09-01T09:30:48.623Z,62.00
2018-09-01T09:31:48.718Z,61.61
2018-09-01T09:32:48.815Z,61.14
2018-09-01T09:33:48.911Z,62.00
2018-09-01T09:34:49.007Z,60.75
2018-09-01T09:35:49.103Z,60.85
2018-09-01T09:36:49.199Z,60.75
2018-09-01T09:37:49.297Z,59.60
2018-09-01T09:38:49.399Z,59.82
2018-09-01T09:39:49.502Z,59.05
2018-09-01T09:40:49.603Z,58.57
2018-09-01T09:41:49.739Z,58.35
2018-09-01T09:42:49.798Z,59.34
2018-09-01T09:43:49.895Z,59.15
2018-09-01T09:44:49.994Z,58.86
2018-09-01T09:45:50.111Z,57.90
2018-09-01T09:46:50.207Z,58.35
2018-09-01T09:47:50.294Z,58.54
2018-09-01T09:48:50.390Z,59.60
2018-09-01T09:49:50.489Z,58.83
2018-09-01T09:50:50.586Z,58.92
2018-09-01T09:51:50.683Z,58.64
2018-09-01T09:52:50.823Z,59.22
2018-09-01T09:53:50.875Z,59.69
2018-09-01T09:54:50.974Z,58.45
2018-09-01T09:55:51.074Z,57.97
2018-09-01T09:56:51.177Z,58.18
2018-09-01T09:57:51.274Z,58.18
2018-09-01T09:58:51.369Z,58.83
2018-09-01T09:59:51.465Z,58.76
2018-09-01T10:00:51.580Z,58.47
2018-09-01T10:01:51.659Z,58.18
2018-09-01T10:02:51.760Z,57.70
2018-09-01T10:03:51.866Z,57.15
2018-09-01T10:04:51.962Z,56.67
2018-09-01T10:05:52.080Z,56.96
2018-09-01T10:06:52.152Z,56.93
2018-09-01T10:07:52.251Z,57.25
2018-09-01T10:08:52.352Z,57.15
2018-09-01T10:09:52.448Z,57.45
2018-09-01T10:10:52.547Z,56.87
2018-09-01T10:11:52.644Z,54.91
2018-09-01T10:12:52.756Z,54.91
2018-09-01T10:13:52.856Z,55.88
2018-09-01T10:14:52.964Z,55.20
2018-09-01T10:15:53.065Z,55.30
2018-09-01T10:16:53.158Z,56.07
2018-09-01T10:17:53.251Z,55.78
2018-09-01T10:18:53.353Z,55.01
2018-09-01T10:19:53.469Z,54.65
2018-09-01T10:20:53.567Z,54.34
2018-09-01T10:21:53.664Z,53.57
2018-09-01T10:22:53.762Z,53.76
2018-09-01T10:23:53.858Z,53.47
2018-09-01T10:24:53.956Z,53.47
2018-09-01T10:25:54.053Z,52.25
2018-09-01T10:26:54.157Z,52.44
2018-09-01T10:27:54.250Z,52.34
2018-09-01T10:28:54.348Z,52.66
2018-09-01T10:29:54.446Z,51.12
2018-09-01T10:30:54.544Z,50.93
2018-09-01T10:31:54.643Z,50.93
2018-09-01T10:32:54.745Z,50.61
2018-09-01T10:33:54.851Z,51.29
2018-09-01T10:34:54.940Z,51.57
2018-09-01T10:35:55.039Z,52.06
2018-09-01T10:36:55.138Z,51.19
2018-09-01T10:37:55.234Z,50.81
2018-09-01T10:38:55.333Z,50.99
2018-09-01T10:39:55.432Z,50.99
2018-09-01T10:40:55.528Z,51.07
2018-09-01T10:41:55.624Z,51.26
2018-09-01T10:42:55.721Z,51.35
2018-09-01T10:43:55.817Z,50.78
2018-09-01T10:44:55.915Z,50.71
2018-09-01T10:45:56.013Z,50.81
2018-09-01T10:46:56.113Z,50.42
2018-09-01T10:47:56.217Z,50.23
2018-09-01T10:48:56.317Z,49.46
2018-09-01T10:49:56.411Z,50.71
2018-09-01T10:50:56.509Z,50.51
2018-09-01T10:51:56.610Z,49.58
2018-09-01T10:52:56.710Z,48.52
2018-09-01T10:53:56.825Z,47.65
2018-09-01T10:54:56.922Z,47.75
2018-09-01T10:55:57.023Z,47.65
2018-09-01T10:56:57.123Z,47.65
2018-09-01T10:57:57.223Z,47.08
2018-09-01T10:58:57.343Z,47.56
2018-09-01T10:59:57.425Z,47.36
2018-09-01T11:00:57.534Z,47.27
2018-09-01T11:01:57.634Z,47.65
2018-09-01T11:02:57.733Z,47.05
2018-09-01T11:03:57.829Z,48.02
2018-09-01T11:04:57.928Z,48.23
2018-09-01T11:05:58.027Z,48.52
2018-09-01T11:06:58.126Z,47.65
2018-09-01T11:07:58.235Z,47.58
2018-09-01T11:08:58.334Z,47.39
2018-09-01T11:09:58.429Z,46.81
2018-09-01T11:10:58.532Z,46.83
2018-09-01T11:11:58.628Z,46.73
2018-09-01T11:12:58.725Z,46.73
2018-09-01T11:13:58.824Z,46.06
2018-09-01T11:14:58.922Z,45.89
2018-09-01T11:15:59.019Z,44.90
2018-09-01T11:16:59.117Z,44.81
2018-09-01T11:17:59.230Z,44.90
2018-09-01T11:18:59.334Z,44.90
2018-09-01T11:19:59.467Z,44.04
2018-09-01T11:20:59.560Z,44.69
2018-09-01T11:21:59.634Z,44.89
2018-09-01T11:22:59.742Z,44.98
2018-09-01T11:23:59.830Z,44.89
2018-09-01T11:24:59.928Z,44.89
2018-09-01T11:26:00.026Z,44.90
2018-09-01T11:27:00.146Z,44.23
2018-09-01T11:28:00.265Z,44.25
2018-09-01T11:29:00.313Z,43.77
2018-09-01T11:30:00.409Z,43.77
2018-09-01T11:31:00.508Z,43.29
2018-09-01T11:32:00.606Z,43.67
2018-09-01T11:33:00.708Z,43.58
2018-09-01T11:34:00.805Z,43.50
2018-09-01T11:35:00.903Z,43.19
2018-09-01T11:36:01.007Z,42.83
2018-09-01T11:37:01.104Z,42.83
2018-09-01T11:38:01.200Z,42.44
2018-09-01T11:39:01.299Z,42.35
2018-09-01T11:40:01.400Z,41.57
2018-09-01T11:41:01.502Z,41.48
2018-09-01T11:42:01.609Z,41.96
2018-09-01T11:43:01.937Z,42.25
2018-09-01T11:44:01.811Z,41.57
2018-09-01T11:45:01.910Z,41.19
2018-09-01T11:46:02.009Z,41.09
2018-09-01T11:47:02.109Z,41.28
2018-09-01T11:48:02.206Z,41.11
2018-09-01T11:49:02.307Z,41.02
2018-09-01T11:50:02.447Z,40.53
2018-09-01T11:51:02.507Z,40.63
2018-09-01T11:52:02.633Z,39.95
2018-09-01T11:53:02.712Z,40.34
2018-09-01T11:54:02.805Z,40.92
2018-09-01T11:55:02.901Z,40.44
2018-09-01T11:56:03.002Z,40.05
2018-09-01T11:57:03.102Z,40.34
2018-09-01T11:58:03.201Z,39.95
2018-09-01T11:59:03.294Z,40.24
2018-09-01T12:00:03.392Z,40.15
2018-09-01T12:01:03.491Z,39.57
2018-09-01T12:02:03.618Z,39.69
2018-09-01T12:03:03.693Z,39.78
2018-09-01T12:04:03.792Z,39.87
2018-09-01T12:05:03.894Z,39.20
2018-09-01T12:06:03.997Z,38.71
2018-09-01T12:07:04.083Z,39.29
2018-09-01T12:08:04.184Z,39.39
2018-09-01T12:09:04.354Z,38.91
2018-09-01T12:10:04.382Z,38.81
2018-09-01T12:11:04.479Z,39.45
2018-09-01T12:12:04.578Z,40.03
2018-09-01T12:13:04.678Z,40.44
2018-09-01T12:14:04.779Z,40.05
2018-09-01T12:15:04.882Z,39.76
2018-09-01T12:16:04.978Z,39.54
2018-09-01T12:17:05.080Z,39.84
2018-09-01T12:18:05.182Z,40.22
2018-09-01T12:19:05.279Z,40.70
2018-09-01T12:20:05.380Z,40.70
2018-09-01T12:21:05.479Z,40.22
2018-09-01T12:22:05.605Z,40.05
2018-09-01T12:23:05.680Z,39.47
2018-09-01T12:24:05.782Z,39.47
2018-09-01T12:25:05.881Z,39.18
2018-09-01T12:26:05.990Z,39.47
2018-09-01T12:27:06.091Z,39.86
2018-09-01T12:28:06.210Z,40.24
2018-09-01T12:29:06.293Z,40.24
2018-09-01T12:30:06.395Z,39.66
2018-09-01T12:31:06.496Z,40.32
2018-09-01T12:32:06.597Z,40.39
2018-09-01T12:33:06.697Z,40.80
2018-09-01T12:34:06.802Z,40.90
2018-09-01T12:35:06.901Z,40.51
2018-09-01T12:36:07.050Z,40.15
2018-09-01T12:37:07.104Z,39.76
2018-09-01T12:38:07.203Z,39.18
2018-09-01T12:39:07.305Z,38.79
2018-09-01T12:40:07.409Z,38.91
2018-09-01T12:41:07.509Z,38.41
2018-09-01T12:42:07.671Z,39.53
2018-09-01T12:43:07.712Z,40.22
2018-09-01T12:44:07.811Z,39.84
2018-09-01T12:45:07.907Z,39.37
2018-09-01T12:46:08.008Z,38.41
2018-09-01T12:47:08.107Z,38.41
2018-09-01T12:48:08.220Z,38.51
2018-09-01T12:49:08.320Z,37.63
2018-09-01T12:50:08.425Z,37.81
2018-09-01T12:51:08.530Z,38.01
2018-09-01T12:52:08.633Z,38.31
2018-09-01T12:53:08.829Z,38.02
2018-09-01T12:54:08.831Z,37.56